createdAt,value
2019-01-06T00:01:49.375Z,100.00
2019-01-06T00:04:40.382Z,100.00
2019-01-06T00:07:29.099Z,100.00
2019-01-06T00:10:14.079Z,100.00
2019-01-06T00:13:20.374Z,100.00
2019-01-06T00:16:05.898Z,100.00
2019-01-06T00:18:50.813Z,100.00
2019-01-06T00:21:43.242Z,100.00
2019-01-06T00:24:46.440Z,100.00
2019-01-06T00:27:29.786Z,100.00
2019-01-06T00:30:11.006Z,100.00
2019-01-06T00:32:57.723Z,100.00
2019-01-06T00:36:02.537Z,100.00
2019-01-06T00:38:43.779Z,100.00
2019-01-06T00:41:27.930Z,100.00
2019-01-06T00:44:34.085Z,100.00
2019-01-06T00:47:19.219Z,100.00
2019-01-06T00:50:06.143Z,100.00
2019-01-06T00:52:59.918Z,100.00
2019-01-06T00:55:46.414Z,100.00
2019-01-06T00:58:37.365Z,100.00
2019-01-06T01:01:23.769Z,100.00
2019-01-06T01:04:09.519Z,100.00
2019-01-06T01:06:51.244Z,100.00
2019-01-06T01:09:53.090Z,100.00
2019-01-06T01:12:37.613Z,100.00
2019-01-06T01:15:24.739Z,100.00
2019-01-06T01:18:18.511Z,100.00
2019-01-06T01:21:06.011Z,100.00
2019-01-06T01:23:52.758Z,100.00
2019-01-06T01:26:37.426Z,100.00
2019-01-06T01:29:24.193Z,100.00
2019-01-06T01:32:15.843Z,100.00
2019-01-06T01:35:03.680Z,100.00
2019-01-06T01:37:49.902Z,100.00
2019-01-06T01:40:36.943Z,100.00
2019-01-06T01:43:27.844Z,100.00
2019-01-06T01:46:14.348Z,100.00
2019-01-06T01:49:01.202Z,100.00
2019-01-06T01:51:58.041Z,100.00
2019-01-06T01:54:57.753Z,100.00
2019-01-06T01:58:03.904Z,100.00
2019-01-06T02:00:50.597Z,100.00
2019-01-06T02:03:39.670Z,100.00
2019-01-06T02:06:26.101Z,100.00
2019-01-06T02:09:32.301Z,100.00
2019-01-06T02:12:18.577Z,100.00
2019-01-06T02:15:15.208Z,100.00
2019-01-06T02:18:15.110Z,100.00
2019-01-06T02:20:56.674Z,100.00
2019-01-06T02:24:02.895Z,100.00
2019-01-06T02:26:49.718Z,100.00
2019-01-06T02:29:36.457Z,100.00
2019-01-06T02:32:26.122Z,100.00
2019-01-06T02:35:22.813Z,100.00
2019-01-06T02:38:22.865Z,100.00
2019-01-06T02:41:22.258Z,100.00
2019-01-06T02:44:19.223Z,100.00
2019-01-06T02:47:05.641Z,100.00
2019-01-06T02:49:52.343Z,100.00
2019-01-06T02:52:49.346Z,100.00
2019-01-06T02:55:36.513Z,100.00
2019-01-06T02:58:21.769Z,100.00
2019-01-06T03:01:02.176Z,100.00
2019-01-06T03:04:05.386Z,100.00
2019-01-06T03:07:05.312Z,100.00
2019-01-06T03:10:06.206Z,100.00
2019-01-06T03:12:52.502Z,100.00
2019-01-06T03:15:32.347Z,100.00
2019-01-06T03:18:25.762Z,100.00
2019-01-06T03:21:19.510Z,100.00
2019-01-06T03:24:20.413Z,100.00
2019-01-06T03:27:11.312Z,100.00
2019-01-06T03:29:57.794Z,100.00
2019-01-06T03:32:40.918Z,100.00
2019-01-06T03:35:31.657Z,100.00
2019-01-06T03:38:18.084Z,100.00
2019-01-06T03:41:18.007Z,100.00
2019-01-06T03:44:05.971Z,100.00
2019-01-06T03:46:53.862Z,100.00
2019-01-06T03:49:41.672Z,100.00
2019-01-06T03:52:34.174Z,100.00
2019-01-06T03:55:23.144Z,100.00
2019-01-06T03:58:10.042Z,100.00
2019-01-06T04:01:13.208Z,100.00
2019-01-06T04:04:02.640Z,100.00
2019-01-06T04:06:44.862Z,100.00
2019-01-06T04:09:31.547Z,100.00
2019-01-06T04:12:33.563Z,100.00
2019-01-06T04:15:17.023Z,100.00
2019-01-06T04:18:02.256Z,100.00
2019-01-06T04:20:48.860Z,100.00
2019-01-06T04:23:36.767Z,100.00
2019-01-06T04:26:33.406Z,100.00
2019-01-06T04:29:14.719Z,100.00
2019-01-06T04:32:08.486Z,100.00
2019-01-06T04:35:02.100Z,100.00
2019-01-06T04:37:58.950Z,100.00
2019-01-06T04:41:02.065Z,100.00
2019-01-06T04:43:58.790Z,100.00
2019-01-06T04:46:56.383Z,100.00
2019-01-06T04:49:56.473Z,100.00
2019-01-06T04:52:41.126Z,100.00
2019-01-06T04:55:26.468Z,100.00
2019-01-06T04:58:14.235Z,100.00
2019-01-06T05:01:01.951Z,100.00
2019-01-06T05:03:49.598Z,100.00
2019-01-06T05:06:45.857Z,100.00
2019-01-06T05:09:49.836Z,100.00
2019-01-06T05:12:40.730Z,100.00
2019-01-06T05:15:39.430Z,100.00
2019-01-06T05:18:30.271Z,100.00
2019-01-06T05:21:36.147Z,100.00
2019-01-06T05:24:50.434Z,100.00
2019-01-06T05:27:37.141Z,100.00
2019-01-06T05:30:40.065Z,100.00
2019-01-06T05:33:27.816Z,100.00
2019-01-06T05:36:14.598Z,100.00
2019-01-06T05:39:20.587Z,100.00
2019-01-06T05:42:17.274Z,100.00
2019-01-06T05:45:07.798Z,100.00
2019-01-06T05:47:58.481Z,100.00
2019-01-06T05:50:44.936Z,100.00
2019-01-06T05:53:34.823Z,100.00
2019-01-06T05:56:19.613Z,100.00
2019-01-06T05:59:25.834Z,100.00
2019-01-06T06:02:13.645Z,100.00
2019-01-06T06:05:07.480Z,100.00
2019-01-06T06:07:54.105Z,100.00
2019-01-06T06:10:43.530Z,100.00
2019-01-06T06:13:46.471Z,100.00
2019-01-06T06:16:37.312Z,100.00
2019-01-06T06:19:17.280Z,100.00
2019-01-06T06:22:17.129Z,100.00
2019-01-06T06:25:07.975Z,100.00
2019-01-06T06:27:49.838Z,100.00
2019-01-06T06:30:37.683Z,100.00
2019-01-06T06:33:37.728Z,100.00
2019-01-06T06:36:37.398Z,100.00
2019-01-06T06:39:19.092Z,100.00
2019-01-06T06:42:05.545Z,100.00
2019-01-06T06:44:52.257Z,100.00
2019-01-06T06:47:38.657Z,100.00
2019-01-06T06:50:28.541Z,100.00
2019-01-06T06:53:12.901Z,100.00
2019-01-06T06:55:57.993Z,100.00
2019-01-06T06:58:58.020Z,100.00
2019-01-06T07:02:28.434Z,100.00
2019-01-06T07:05:18.785Z,100.00
2019-01-06T07:08:18.963Z,100.00
2019-01-06T07:11:00.081Z,100.00
2019-01-06T07:14:06.326Z,100.00
2019-01-06T07:17:35.299Z,100.00
2019-01-06T07:20:26.709Z,100.00
2019-01-06T07:23:11.159Z,100.00
2019-01-06T07:26:02.059Z,100.00
2019-01-06T07:32:01.604Z,100.00
2019-01-06T07:34:57.221Z,100.00
2019-01-06T07:37:42.934Z,100.00
2019-01-06T07:40:29.735Z,100.00
2019-01-06T07:43:26.882Z,100.00
2019-01-06T07:46:22.603Z,100.00
2019-01-06T07:49:10.646Z,98.41
2019-01-06T07:51:57.556Z,96.95
2019-01-06T07:54:46.331Z,95.96
2019-01-06T07:57:32.794Z,94.79
2019-01-06T08:00:23.920Z,94.75
2019-01-06T08:03:24.079Z,94.89
2019-01-06T08:06:10.914Z,95.02
2019-01-06T08:08:58.307Z,95.30
2019-01-06T08:12:03.541Z,95.64
2019-01-06T08:14:49.874Z,96.06
2019-01-06T08:17:39.554Z,96.37
2019-01-06T08:20:26.034Z,96.57
2019-01-06T08:23:23.283Z,96.71
2019-01-06T08:26:16.328Z,96.94
2019-01-06T08:29:16.300Z,96.97
2019-01-06T08:32:10.106Z,96.90
2019-01-06T08:35:10.536Z,96.57
2019-01-06T08:38:04.672Z,95.97
2019-01-06T08:41:04.412Z,96.00
2019-01-06T08:43:52.417Z,96.15
2019-01-06T08:46:41.018Z,95.93
2019-01-06T08:49:31.306Z,95.40
2019-01-06T08:52:17.772Z,95.36
2019-01-06T08:55:04.687Z,95.12
2019-01-06T08:57:51.310Z,95.11
2019-01-06T09:00:33.677Z,95.27
2019-01-06T09:03:24.520Z,95.40
2019-01-06T09:06:21.716Z,95.28
2019-01-06T09:09:12.078Z,95.32
2019-01-06T09:12:00.801Z,95.25
2019-01-06T09:14:58.154Z,95.06
2019-01-06T09:17:44.636Z,94.93
2019-01-06T09:20:41.980Z,94.85
2019-01-06T09:23:29.958Z,94.84
2019-01-06T09:26:23.750Z,95.05
2019-01-06T09:29:10.130Z,94.86
2019-01-06T09:32:04.031Z,94.30
2019-01-06T09:34:50.915Z,94.23
2019-01-06T09:37:53.997Z,93.27
2019-01-06T09:40:40.742Z,92.88
2019-01-06T09:43:44.165Z,92.34
2019-01-06T09:46:31.017Z,91.68
2019-01-06T09:49:17.866Z,91.58
2019-01-06T09:52:04.804Z,91.49
2019-01-06T09:54:55.529Z,91.90
2019-01-06T09:57:58.719Z,92.77
2019-01-06T10:00:46.583Z,93.23
2019-01-06T10:03:46.839Z,93.93
2019-01-06T10:06:33.206Z,93.93
2019-01-06T10:09:33.913Z,93.86
2019-01-06T10:12:21.914Z,93.95
2019-01-06T10:15:12.810Z,93.73
2019-01-06T10:18:00.502Z,93.85
2019-01-06T10:20:48.112Z,93.86
2019-01-06T10:23:28.059Z,94.00
2019-01-06T10:26:11.741Z,93.54
2019-01-06T10:29:12.121Z,93.26
2019-01-06T10:32:00.224Z,93.33
2019-01-06T10:34:57.844Z,93.55
2019-01-06T10:37:49.040Z,93.39
2019-01-06T10:40:28.273Z,92.75
2019-01-06T10:43:10.091Z,93.01
2019-01-06T10:46:06.040Z,92.77
2019-01-06T10:48:57.458Z,92.53
2019-01-06T10:51:57.621Z,92.27
2019-01-06T10:54:54.955Z,91.58
2019-01-06T10:57:47.708Z,91.61
2019-01-06T11:00:38.497Z,91.60
2019-01-06T11:03:29.362Z,91.97
2019-01-06T11:06:17.499Z,91.96
2019-01-06T11:09:14.525Z,91.76
2019-01-06T11:12:11.022Z,91.56
2019-01-06T11:14:57.915Z,91.87
2019-01-06T11:17:54.823Z,91.67
2019-01-06T11:20:41.700Z,91.72
2019-01-06T11:23:28.339Z,91.90
2019-01-06T11:26:15.450Z,92.32
2019-01-06T11:29:02.277Z,91.87
2019-01-06T11:32:08.346Z,92.20
2019-01-06T11:34:59.518Z,92.04
2019-01-06T11:37:46.404Z,91.97
2019-01-06T11:40:37.589Z,92.12
2019-01-06T11:43:25.587Z,91.99
2019-01-06T11:46:25.639Z,91.54
2019-01-06T11:49:19.841Z,91.96
2019-01-06T11:52:06.296Z,91.70
2019-01-06T11:55:08.311Z,91.44
2019-01-06T11:57:55.227Z,91.51
2019-01-06T12:00:44.174Z,91.58
2019-01-06T12:03:44.176Z,91.73
2019-01-06T12:06:40.821Z,91.55
2019-01-06T12:09:22.838Z,91.15
2019-01-06T12:12:03.150Z,91.11
2019-01-06T12:15:03.944Z,91.27
2019-01-06T12:17:51.067Z,91.11
2019-01-06T12:20:42.355Z,91.07
2019-01-06T12:23:33.356Z,91.17
2019-01-06T12:26:22.671Z,91.00
2019-01-06T12:29:09.531Z,91.14
2019-01-06T12:31:56.487Z,91.36
2019-01-06T12:34:43.200Z,91.22
2019-01-06T12:37:23.098Z,91.12
2019-01-06T12:40:20.109Z,91.20
2019-01-06T12:43:11.210Z,91.14
2019-01-06T12:46:06.840Z,91.02
2019-01-06T12:48:53.687Z,90.88
2019-01-06T12:51:46.739Z,91.09
2019-01-06T12:54:33.493Z,91.51
2019-01-06T12:57:21.562Z,91.65
2019-01-06T13:00:14.801Z,91.83
2019-01-06T13:03:05.831Z,91.79
2019-01-06T13:06:09.133Z,92.02
2019-01-06T13:09:08.886Z,92.14
2019-01-06T13:12:09.023Z,92.38
2019-01-06T13:14:57.073Z,92.56
2019-01-06T13:17:42.474Z,92.25
2019-01-06T13:20:48.544Z,92.44
2019-01-06T13:23:29.762Z,92.76
2019-01-06T13:26:16.096Z,93.21
2019-01-06T13:29:00.447Z,93.55
2019-01-06T13:31:46.998Z,93.58
2019-01-06T13:34:33.347Z,93.65
2019-01-06T13:37:30.771Z,93.85
2019-01-06T13:40:17.763Z,93.89
2019-01-06T13:43:16.653Z,94.16
2019-01-06T13:46:14.068Z,94.12
2019-01-06T13:49:12.973Z,94.24
2019-01-06T13:52:07.785Z,94.13
2019-01-06T13:55:01.787Z,93.95
2019-01-06T13:57:48.446Z,93.82
2019-01-06T14:00:48.868Z,94.03
2019-01-06T14:03:40.237Z,94.00
2019-01-06T14:06:28.187Z,93.91
2019-01-06T14:09:15.168Z,94.04
2019-01-06T14:11:59.426Z,94.19
2019-01-06T14:14:49.159Z,94.17
2019-01-06T14:17:46.368Z,94.25
2019-01-06T14:20:46.361Z,94.38
2019-01-06T14:23:34.367Z,94.48
2019-01-06T14:26:25.818Z,94.54
2019-01-06T14:29:12.794Z,94.63
2019-01-06T14:31:59.634Z,94.87
2019-01-06T14:34:42.901Z,95.03
2019-01-06T14:37:29.663Z,95.16
2019-01-06T14:40:22.922Z,95.21
2019-01-06T14:43:16.936Z,95.25
2019-01-06T14:46:00.134Z,95.44
2019-01-06T14:48:46.889Z,95.56
2019-01-06T14:54:40.396Z,95.96
2019-01-06T14:57:27.941Z,96.10
2019-01-06T15:00:25.506Z,96.18
2019-01-06T15:03:15.205Z,96.28
2019-01-06T15:06:01.844Z,96.26
2019-01-06T15:08:49.900Z,96.37
2019-01-06T15:11:49.607Z,96.51
2019-01-06T15:14:36.009Z,96.60
2019-01-06T15:17:22.208Z,96.70
2019-01-06T15:20:18.731Z,96.79
2019-01-06T15:23:05.839Z,96.92
2019-01-06T15:25:51.862Z,97.12
2019-01-06T15:28:38.584Z,97.33
2019-01-06T15:31:41.968Z,97.33
2019-01-06T15:34:33.485Z,97.29
2019-01-06T15:37:13.157Z,97.26
2019-01-06T15:40:01.270Z,97.26
2019-01-06T15:42:49.109Z,97.27
2019-01-06T15:45:39.779Z,97.34
2019-01-06T15:48:33.510Z,97.47
2019-01-06T15:51:20.373Z,97.66
2019-01-06T15:54:07.112Z,97.62
2019-01-06T15:57:03.791Z,97.76
2019-01-06T15:59:49.998Z,97.94
2019-01-06T16:02:49.491Z,98.07
2019-01-06T16:05:40.145Z,98.24
2019-01-06T16:08:33.931Z,98.38
2019-01-06T16:11:20.638Z,98.51
2019-01-06T16:14:07.323Z,98.63
2019-01-06T16:17:07.506Z,98.75
2019-01-06T16:19:52.967Z,98.81
2019-01-06T16:22:44.587Z,98.95
2019-01-06T16:25:44.510Z,98.99
2019-01-06T16:28:23.304Z,98.91
2019-01-06T16:31:24.169Z,98.96
2019-01-06T16:34:14.977Z,99.03
2019-01-06T16:37:01.785Z,99.00
2019-01-06T16:39:55.902Z,99.16
2019-01-06T16:42:49.982Z,99.08
2019-01-06T16:45:37.789Z,98.98
2019-01-06T16:48:24.655Z,98.90
2019-01-06T16:51:24.438Z,98.87
2019-01-06T16:54:10.900Z,98.97
2019-01-06T16:56:54.310Z,99.03
2019-01-06T16:59:41.026Z,99.20
2019-01-06T17:02:29.046Z,99.33
2019-01-06T17:05:22.634Z,99.48
2019-01-06T17:08:15.498Z,99.51
2019-01-06T17:11:01.709Z,99.56
2019-01-06T17:13:52.667Z,99.68
2019-01-06T17:16:33.915Z,99.82
2019-01-06T17:19:20.694Z,99.79
2019-01-06T17:22:12.722Z,99.76
2019-01-06T17:25:07.874Z,99.82
2019-01-06T17:27:54.664Z,99.83
2019-01-06T17:30:44.282Z,99.75
2019-01-06T17:33:24.807Z,99.47
2019-01-06T17:36:14.274Z,99.39
2019-01-06T17:38:59.191Z,99.36
2019-01-06T17:41:46.005Z,99.15
2019-01-06T17:44:32.457Z,98.84
2019-01-06T17:47:19.760Z,98.68
2019-01-06T17:50:10.961Z,98.52
2019-01-06T17:53:08.124Z,98.19
2019-01-06T17:56:04.638Z,97.91
2019-01-06T17:58:52.485Z,97.79
2019-01-06T18:01:55.349Z,97.64
2019-01-06T18:04:37.132Z,97.53
2019-01-06T18:07:23.635Z,97.65
2019-01-06T18:10:10.684Z,97.51
2019-01-06T18:13:08.000Z,97.46
2019-01-06T18:15:54.828Z,97.47
2019-01-06T18:18:48.787Z,97.32
2019-01-06T18:21:48.739Z,97.27
2019-01-06T18:24:42.505Z,97.26
2019-01-06T18:27:25.667Z,97.01
2019-01-06T18:30:24.501Z,96.65
2019-01-06T18:33:31.162Z,96.57
2019-01-06T18:36:19.304Z,96.25
2019-01-06T18:39:16.072Z,96.28
2019-01-06T18:42:02.646Z,95.95
2019-01-06T18:45:09.034Z,95.79
2019-01-06T18:47:44.161Z,95.87
2019-01-06T18:50:32.002Z,96.06
2019-01-06T18:53:29.261Z,96.10
2019-01-06T18:56:20.438Z,96.03
2019-01-06T18:59:13.259Z,95.96
2019-01-06T19:02:01.505Z,96.05
2019-01-06T19:04:44.677Z,96.07
2019-01-06T19:07:23.771Z,96.24
2019-01-06T19:10:11.270Z,96.29
2019-01-06T19:13:08.473Z,96.46
2019-01-06T19:15:55.267Z,96.57
2019-01-06T19:18:53.062Z,96.64
2019-01-06T19:21:39.403Z,96.79
2019-01-06T19:24:34.356Z,96.89
2019-01-06T19:27:22.270Z,96.94
2019-01-06T19:30:14.645Z,97.11
2019-01-06T19:32:58.116Z,97.19
2019-01-06T19:35:47.063Z,97.17
2019-01-06T19:38:42.782Z,97.24
2019-01-06T19:41:50.951Z,97.49
2019-01-06T19:45:06.663Z,97.51
2019-01-06T19:48:12.333Z,97.46
2019-01-06T19:51:04.082Z,97.69
2019-01-06T19:53:59.533Z,97.88
2019-01-06T19:56:54.988Z,98.13
2019-01-06T19:59:45.219Z,98.56
2019-01-06T20:02:42.991Z,98.86
2019-01-06T20:05:43.840Z,99.08
2019-01-06T20:08:34.175Z,99.48
2019-01-06T20:11:21.821Z,99.75
2019-01-06T20:14:09.714Z,100.00
2019-01-06T20:16:56.059Z,100.00
2019-01-06T20:19:43.021Z,100.00
2019-01-06T20:22:26.814Z,100.00
2019-01-06T20:25:08.291Z,100.00
2019-01-06T20:27:58.197Z,100.00
2019-01-06T20:30:49.416Z,100.00
2019-01-06T20:34:16.942Z,100.00
2019-01-06T20:37:19.984Z,100.00
2019-01-06T20:40:06.708Z,100.00
2019-01-06T20:43:00.396Z,100.00
2019-01-06T20:45:47.252Z,100.00
2019-01-06T20:48:33.919Z,100.00
2019-01-06T20:51:28.115Z,100.00
2019-01-06T20:54:34.600Z,100.00
2019-01-06T20:57:21.806Z,100.00
2019-01-06T21:00:18.050Z,100.00
2019-01-06T21:02:59.834Z,100.00
2019-01-06T21:05:47.718Z,100.00
2019-01-06T21:08:31.999Z,100.00
2019-01-06T21:11:16.424Z,100.00
2019-01-06T21:14:03.136Z,100.00
2019-01-06T21:17:06.014Z,100.00
2019-01-06T21:19:58.661Z,100.00
2019-01-06T21:22:47.539Z,100.00
2019-01-06T21:25:38.136Z,100.00
2019-01-06T21:28:23.302Z,100.00
2019-01-06T21:31:09.632Z,100.00
2019-01-06T21:33:55.405Z,100.00
2019-01-06T21:36:50.017Z,100.00
2019-01-06T21:39:47.540Z,100.00
2019-01-06T21:42:36.144Z,100.00
2019-01-06T21:45:23.750Z,100.00
2019-01-06T21:48:27.086Z,100.00
2019-01-06T21:51:18.790Z,100.00
2019-01-06T21:54:25.647Z,100.00
2019-01-06T21:57:25.924Z,100.00
2019-01-06T22:00:23.570Z,100.00
2019-01-06T22:03:10.592Z,100.00
2019-01-06T22:05:55.090Z,100.00
2019-01-06T22:09:01.780Z,100.00
2019-01-06T22:11:49.761Z,100.00
2019-01-06T22:14:40.717Z,100.00
2019-01-06T22:17:30.214Z,100.00
2019-01-06T22:20:22.636Z,100.00
2019-01-06T22:23:09.764Z,100.00
2019-01-06T22:26:00.709Z,100.00
2019-01-06T22:29:05.210Z,100.00
2019-01-06T22:31:59.462Z,100.00
2019-01-06T22:34:46.957Z,100.00
2019-01-06T22:37:50.641Z,100.00
2019-01-06T22:40:33.405Z,100.00
2019-01-06T22:43:30.314Z,100.00
2019-01-06T22:46:16.675Z,100.00
2019-01-06T22:49:03.384Z,100.00
2019-01-06T22:52:09.105Z,100.00
2019-01-06T22:55:06.311Z,100.00
2019-01-06T22:58:12.134Z,100.00
2019-01-06T23:00:53.932Z,100.00
2019-01-06T23:03:40.824Z,100.00
2019-01-06T23:06:21.006Z,100.00
2019-01-06T23:09:02.737Z,100.00
2019-01-06T23:12:02.472Z,100.00
2019-01-06T23:14:59.552Z,100.00
2019-01-06T23:17:43.159Z,100.00
2019-01-06T23:20:33.991Z,100.00
2019-01-06T23:23:20.653Z,100.00
2019-01-06T23:26:13.166Z,99.90
2019-01-06T23:28:59.775Z,99.84
2019-01-06T23:31:50.883Z,99.84
2019-01-06T23:34:37.393Z,99.84
2019-01-06T23:37:23.616Z,99.56
2019-01-06T23:40:05.594Z,99.52
2019-01-06T23:42:50.593Z,99.33
2019-01-06T23:45:56.841Z,99.30
2019-01-06T23:48:46.052Z,99.31
2019-01-06T23:51:43.059Z,99.21
2019-01-06T23:54:28.199Z,98.84
2019-01-06T23:57:25.451Z,98.83
